x

Patapsco, Md (44043) Weather Station

8:30pm - Tue 31st Mar 2015 All times are EDT. -4 hours from GMT.

  • Wind
    13mph, 16mph gusts
  • Air Temp 48°f
  • Sea Pressure 1007.4mb
  • Patapsco, Md
  • Patapsco, Md

More Historic Weather Station data

Upgrade to MSW Pro to gain access to the past 30 days of data for over 8000 Wavebouys and Weather Stations around the globe.

Join Pro

Comparision Forecast

View Surf forecast
   
Tue 03/31 8:30pm  -   -  13 16 mph 1007.4mb - 48f
8:20pm  -   -  11
mph
1007mb - 49f
8:10pm  -   -  9 13 mph 1006.1mb - 50f
8:00pm 1.3ft 2s 9 16 mph 1005.9mb 42f 50f
7:50pm  -   -  13 20 mph 1006.2mb - 50f
7:10pm  -   -  7 11 mph 1003.9mb - 56f
7:00pm 0.3ft  -  2 4 mph 1003.1mb 42f 56f
6:50pm  -   -   -  4 mph 1003mb - 55f
6:40pm  -   -  4 9 mph 1003mb - 54f
6:30pm  -   -  9 11 mph 1003.1mb - 52f
6:20pm  -   -  9 11 mph 1003.2mb - 52f
6:10pm  -   -  11
mph
1003.3mb - 54f
6:00pm 0.7ft  -  13 18 mph 1003.6mb 42f 55f
5:50pm  -   -  9 11 mph 1003.6mb - 55f
5:40pm  -   -  9 11 mph 1003.7mb - 56f
5:30pm  -   -  9 16 mph 1003.6mb - 55f
5:20pm  -   -  4 9 mph 1003.3mb - 56f
5:10pm  -   -  11 18 mph 1003.5mb - 56f
5:00pm 1ft 2s 13 16 mph 1003.7mb 42f 57f
4:50pm  -   -  18 22 mph 1003.5mb - 60f
4:40pm  -   -  13 20 mph 1003.8mb - 57f
4:30pm  -   -  7 13 mph 1003.7mb - 52f
4:20pm  -   -  7 9 mph 1003.6mb - 49f
4:10pm  -   -  11 13 mph 1003.1mb - 50f
4:00pm 1.6ft 2s 13 16 mph 1002.8mb 42f 51f
3:50pm  -   -  13 16 mph 1002.9mb - 51f
3:40pm  -   -  13 18 mph 1002.9mb - 51f
3:30pm  -   -  16 20 mph 1003mb - 51f
3:20pm  -   -  16 20 mph 1003mb - 51f
3:10pm  -   -  18 25 mph 1003.2mb - 52f
3:00pm 2ft 3s 20 25 mph 1003.3mb 42f 51f
2:50pm  -   -  20 25 mph 1003.3mb - 50f
2:40pm  -   -  20 22 mph 1003.5mb - 50f
2:30pm  -   -  20 25 mph 1003.7mb - 50f
2:20pm  -   -  20 25 mph 1004.1mb - 50f
2:10pm  -   -  20 25 mph 1004.4mb - 50f
2:00pm 2ft 3s 20 25 mph 1004.8mb 42f 50f
1:50pm  -   -  20 27 mph 1005.1mb - 50f
1:40pm  -   -  20 25 mph 1005.6mb - 50f
1:30pm  -   -  20 25 mph 1006.2mb - 50f
1:20pm  -   -  18 22 mph 1006.6mb - 49f
1:10pm  -   -  18 22 mph 1007mb - 49f
1:00pm 1ft 2s 20 22 mph 1007.3mb 42f 49f
12:50pm  -   -  18 22 mph 1007.6mb - 49f
12:40pm  -   -  18 20 mph 1008.1mb - 49f
12:30pm  -   -  16 18 mph 1008.4mb - 49f
12:20pm  -   -  13 16 mph 1008.8mb - 47f
12:10pm  -   -  11 16 mph 1009.2mb - 47f
12:00pm  -   -  9 11 mph 1009.5mb 42f 46f
11:50am  -   -  11
mph
1009.8mb - 46f
11:40am  -   -  11
mph
1010.2mb - 45f
11:30am  -   -  11
mph
1010.6mb - 45f
11:20am  -   -  11
mph
1011mb - 45f
11:10am  -   -  11
mph
1011.1mb - 44f
11:00am  -   -  9 11 mph 1011.4mb 42f 44f
10:50am  -   -  9
mph
1011.8mb - 45f
10:40am  -   -  9
mph
1012.4mb - 44f
10:30am  -   -  9
mph
1012.4mb - 44f
10:20am  -   -  7 9 mph 1012.6mb - 44f
10:10am  -   -  7
mph
1012.7mb - 44f
10:00am  -   -  7 9 mph 1013mb 42f 44f
9:50am  -   -  7
mph
1013.4mb - 43f
9:40am  -   -  4
mph
1013.8mb - 43f
9:30am  -   -  2 4 mph 1013.9mb - 43f
9:20am  -   -  2 4 mph 1013.9mb - 43f
9:10am  -   -  2 4 mph 1014mb - 44f
9:00am  -   -  2 4 mph 1014mb 41f 44f
8:50am  -   -  4
mph
1013.9mb - 43f
8:40am  -   -  4
mph
1013.9mb - 42f
8:30am  -   -  4
mph
1014mb - 42f
8:20am  -   -  4
mph
1014.2mb - 42f
8:10am  -   -  4 7 mph 1014.3mb - 42f
8:00am  -   -  4 7 mph 1014.2mb 41f 43f
7:50am  -   -  4 7 mph 1014.3mb - 44f
7:40am  -   -  7 13 mph 1014.2mb - 46f
7:30am  -   -  7 16 mph 1014mb - 44f
7:20am  -   -  4 7 mph 1013.8mb - 45f
7:10am  -   -  7 9 mph 1013.6mb - 45f
7:00am  -   -  9
mph
1013.6mb 41f 45f
6:50am  -   -  9
mph
1013.5mb - 45f
6:40am  -   -  9
mph
1013.3mb - 45f
6:30am  -   -  9
mph
1013.4mb - 44f
6:10am  -   -  9 11 mph 1013.3mb - 45f
6:00am  -   -  9 11 mph 1013.2mb 41f 45f
5:40am  -   -  7 9 mph 1013.1mb - 46f
5:30am  -   -  9 11 mph 1013.1mb - 46f
5:20am  -   -  7 9 mph 1013.1mb - 46f
5:10am  -   -  7
mph
1013.1mb - 46f
5:00am  -   -  7 9 mph 1013.1mb 41f 46f
4:50am  -   -  9 13 mph 1013.1mb - 47f
4:40am  -   -  9 11 mph 1013mb - 47f
4:30am  -   -  11
mph
1013mb - 47f
4:20am  -   -  11 13 mph 1013mb - 47f
4:10am  -   -  11
mph
1013mb - 47f
4:00am  -   -  9 11 mph 1012.9mb 41f 47f
3:50am  -   -  11
mph
1012.9mb - 47f
3:40am  -   -  11 13 mph 1012.9mb - 47f
3:30am  -   -  13
mph
1013mb - 48f
3:20am  -   -  13 18 mph 1013mb - 48f
3:10am  -   -  11 13 mph 1013mb - 47f
3:00am  -   -  11 13 mph 1013.1mb 41f 47f
2:50am  -   -  11 13 mph 1013.2mb - 47f
2:40am  -   -  9 13 mph 1013.3mb - 47f
2:30am  -   -  11 16 mph 1013.3mb - 47f
2:20am  -   -  9 11 mph 1013.4mb - 47f
2:10am  -   -  11
mph
1013.5mb - 47f
2:00am  -   -  9 13 mph 1013.5mb 41f 47f
1:50am  -   -  9 11 mph 1013.5mb - 47f
1:40am  -   -  9 11 mph 1013.5mb - 47f
1:30am  -   -  11 16 mph 1013.6mb - 48f
1:20am  -   -  11 13 mph 1013.6mb - 47f
1:10am  -   -  9 11 mph 1013.7mb - 46f
1:00am  -   -  9
mph
1013.8mb 41f 45f
12:50am  -   -  9
mph
1013.8mb - 45f
12:40am  -   -  7 9 mph 1013.8mb - 45f
12:30am  -   -  7 9 mph 1013.8mb - 46f
12:20am  -   -  7 9 mph 1013.8mb - 46f
12:10am  -   -  7 9 mph 1013.9mb - 47f
12:00am  -   -  7
mph
1014mb 41f 46f
Mon 03/30 11:50pm  -   -  7 9 mph 1014.1mb - 46f
11:40pm  -   -  7 9 mph 1014.1mb - 44f
11:30pm  -   -  7
mph
1014.2mb - 43f
11:20pm  -   -  7
mph
1014.2mb - 44f
11:10pm  -   -  4 7 mph 1014.1mb - 45f
11:00pm 0.3ft  -  7 9 mph 1014mb 40f 46f
10:50pm  -   -  9
mph
1014mb - 46f
10:40pm  -   -  7 9 mph 1014.1mb - 45f
10:30pm  -   -  9
mph
1014.1mb - 46f
10:20pm  -   -  11
mph
1014.1mb - 46f
10:10pm  -   -  9 11 mph 1014.1mb - 46f
10:00pm 1ft 2s 9 11 mph 1014.2mb 40f 46f
9:50pm  -   -  9 11 mph 1014.3mb - 47f
9:40pm  -   -  9 11 mph 1014.5mb - 47f
9:30pm  -   -  11
mph
1014.5mb - 48f
9:20pm  -   -  9 11 mph 1014.3mb - 48f
9:10pm  -   -  9 11 mph 1014.2mb - 48f
9:00pm 1ft 2s 11
mph
1013.9mb 40f 49f
8:50pm  -   -  11 13 mph 1013.6mb - 50f
8:40pm  -   -  13 18 mph 1013.4mb - 50f
8:30pm  -   -  11 16 mph 1013.1mb - 50f
8:20pm  -   -  11 13 mph 1012.9mb - 51f
8:10pm  -   -  11 16 mph 1012.5mb - 51f
8:00pm 1ft 2s 11 13 mph 1012.3mb 40f 49f
7:50pm  -   -  11 13 mph 1012.1mb - 49f
7:40pm  -   -  13 16 mph 1011.8mb - 50f
7:30pm  -   -  13 16 mph 1011.6mb - 50f
7:20pm  -   -  13 18 mph 1011.5mb - 50f
7:10pm  -   -  13 18 mph 1011.3mb - 50f
7:00pm 1ft 2s 11 13 mph 1011.3mb 41f 50f
6:50pm  -   -  13 22 mph 1011.2mb - 51f
6:40pm  -   -  11 16 mph 1011.1mb - 52f
6:30pm  -   -  11 16 mph 1011mb - 51f
6:20pm  -   -  11 13 mph 1011mb - 51f
6:10pm  -   -  11 16 mph 1010.9mb - 52f
6:00pm 1ft 2s 11 13 mph 1010.9mb 41f 50f
5:50pm  -   -  9 11 mph 1010.8mb - 49f
5:40pm  -   -  7 9 mph 1010.8mb - 49f
5:30pm  -   -  11 13 mph 1010.8mb - 51f
5:20pm  -   -  13 18 mph 1010.8mb - 51f
5:10pm  -   -  9 13 mph 1010.8mb - 50f
5:00pm 1.3ft 3s 11 13 mph 1010.8mb 41f 51f
4:50pm  -   -  11
mph
1010.8mb - 51f
4:40pm  -   -  13 16 mph 1010.8mb - 51f
4:30pm  -   -  11 13 mph 1010.7mb - 50f
4:20pm  -   -  11 13 mph 1010.7mb - 50f
4:10pm  -   -  13 16 mph 1010.8mb - 50f
4:00pm 1.3ft 3s 16 20 mph 1010.8mb 40f 50f
3:50pm  -   -  16 20 mph 1010.7mb - 51f
3:40pm  -   -  18 22 mph 1010.7mb - 52f
3:30pm  -   -  18 22 mph 1010.7mb - 51f
3:20pm  -   -  13 18 mph 1010.7mb - 50f
3:10pm  -   -  13 18 mph 1010.8mb - 50f
3:00pm 0.7ft  -  9 13 mph 1011mb 40f 51f
2:50pm  -   -  11 13 mph 1011.1mb - 51f
2:40pm  -   -  7 11 mph 1011.2mb - 51f
2:30pm  -   -  11 13 mph 1011.4mb - 51f
2:20pm  -   -  11 16 mph 1011.5mb - 50f
2:10pm  -   -  11 16 mph 1011.6mb - 50f
2:00pm 1.3ft 2s 13 18 mph 1011.7mb 40f 50f
1:50pm  -   -  16 22 mph 1011.8mb - 51f
1:40pm  -   -  16 22 mph 1011.9mb - 51f
1:30pm  -   -  13 18 mph 1012mb - 50f
1:20pm  -   -  16 22 mph 1012mb - 50f
1:10pm  -   -  13 18 mph 1012.1mb - 50f
1:00pm  -   -  18 25 mph 1012.1mb 40f 50f
12:50pm  -   -  11 16 mph 1012.2mb - 49f
12:40pm  -   -  13 18 mph 1012.3mb - 49f
12:30pm  -   -  11 16 mph 1012.3mb - 48f
12:20pm  -   -  11 13 mph 1012.3mb - 47f
12:10pm  -   -  11 13 mph 1012.4mb - 47f
12:00pm 1ft 2s 11 13 mph 1012.6mb 39f 46f
11:50am  -   -  9 11 mph 1012.8mb - 46f
11:40am  -   -  9 11 mph 1012.8mb - 46f
11:30am  -   -  9 11 mph 1013mb - 46f
11:20am  -   -  9 11 mph 1013.1mb - 46f
11:10am  -   -  13 16 mph 1013.1mb - 46f
11:00am 1ft 2s 11 16 mph 1013.2mb 40f 46f
10:50am  -   -  11 13 mph 1013.3mb - 46f
10:40am  -   -  11 13 mph 1013.2mb - 45f
10:30am  -   -  11 13 mph 1013mb - 44f
10:20am  -   -  11 13 mph 1012.9mb - 44f
10:10am  -   -  11 16 mph 1012.9mb - 43f
10:00am 1.3ft 2s 11 16 mph 1013.1mb 39f 42f
9:50am  -   -  13 16 mph 1013.3mb - 41f
9:40am  -   -  13 16 mph 1013.3mb - 41f
9:30am  -   -  13 16 mph 1013.2mb - 41f
9:20am  -   -  11 13 mph 1013.2mb - 41f
9:10am  -   -  11 13 mph 1013.3mb - 41f
9:00am 1.6ft 3s 13 16 mph 1013.4mb 40f 41f
8:50am  -   -  13 18 mph 1013.3mb - 41f
8:40am  -   -  16 18 mph 1013.3mb - 41f
8:30am  -   -  18 20 mph 1013.3mb - 41f
8:20am  -   -  18 22 mph 1013.3mb - 41f
8:10am  -   -  18 22 mph 1013.3mb - 41f
8:00am 1.3ft 2s 20 22 mph 1013.4mb 40f 41f
7:50am  -   -  20 22 mph 1013.4mb - 40f
7:40am  -   -  18 22 mph 1013.6mb - 40f
7:30am  -   -  18 20 mph 1013.9mb - 40f
7:20am  -   -  16 18 mph 1013.9mb - 40f
7:10am  -   -  13 16 mph 1013.8mb - 40f
7:00am 1ft 2s 13 16 mph 1013.8mb 40f 40f
6:50am  -   -  16 18 mph 1014mb - 39f
6:40am  -   -  13 16 mph 1014.4mb - 39f
6:30am  -   -  13 16 mph 1014.7mb - 39f
6:20am  -   -  16 18 mph 1014.8mb - 39f
6:10am  -   -  16 18 mph 1014.9mb - 39f
6:00am 1.3ft 2s 16 20 mph 1014.9mb 40f 39f
5:50am  -   -  16 20 mph 1015.1mb - 39f
5:40am  -   -  18 22 mph 1015.3mb - 39f
5:30am  -   -  16 20 mph 1015.5mb - 39f
5:20am  -   -  16 18 mph 1015.9mb - 39f
5:10am  -   -  16 18 mph 1016mb - 40f
5:00am  -   -  16 18 mph 1016mb 40f 40f
4:50am  -   -  13 18 mph 1016.3mb - 40f
4:40am  -   -  13 16 mph 1016.3mb - 40f
4:30am  -   -  11 13 mph 1016.5mb - 40f
4:20am  -   -  13
mph
1016.7mb - 40f
4:10am  -   -  13 16 mph 1016.8mb - 40f
4:00am 1ft 2s 11 16 mph 1017mb 40f 40f
3:50am  -   -  11 13 mph 1017.2mb - 40f
3:40am  -   -  11 16 mph 1017.3mb - 39f
3:30am  -   -  16 18 mph 1017mb - 39f
3:20am  -   -  13 18 mph 1017.2mb - 39f
3:10am  -   -  13 16 mph 1017.8mb - 39f
3:00am 1.3ft 2s 11 16 mph 1018.1mb 39f 40f
2:50am  -   -  13 20 mph 1018.6mb - 40f
2:40am  -   -  13 20 mph 1018.9mb - 39f
2:30am  -   -  16 20 mph 1019mb - 39f
2:20am  -   -  20 25 mph 1018.8mb - 39f
2:10am  -   -  20 22 mph 1018.7mb - 39f
2:00am 1.6ft 2s 18 22 mph 1019mb 40f 39f
1:50am  -   -  18 22 mph 1019.1mb - 39f
1:40am  -   -  20 22 mph 1019.1mb - 39f
1:30am  -   -  20 25 mph 1019mb - 39f
1:20am  -   -  20 25 mph 1019.1mb - 39f
1:10am  -   -  22 27 mph 1019.4mb - 39f
1:00am 2ft 3s 22 27 mph 1019.7mb 40f 39f
12:50am  -   -  25 29 mph 1020mb - 39f
12:40am  -   -  22 27 mph 1020.1mb - 39f
12:30am  -   -  22 27 mph 1020.4mb - 39f
12:20am  -   -  20 25 mph 1020.9mb - 39f
12:10am  -   -  20 25 mph 1021.3mb - 39f
12:00am 1.6ft 2s 20 22 mph 1021.3mb 40f 39f
Sun 03/29 11:50pm  -   -  20 22 mph 1021.3mb - 39f
11:40pm  -   -  18 22 mph 1021.1mb - 39f
11:30pm  -   -  16 20 mph 1021.2mb - 39f
11:20pm  -   -  18 20 mph 1021.2mb - 39f
11:10pm  -   -  16 20 mph 1021.2mb - 39f
11:00pm 1.3ft 2s 16 18 mph 1021.1mb 40f 39f
10:50pm  -   -  16 18 mph 1021.2mb - 39f
10:40pm  -   -  16 18 mph 1021.5mb - 39f
10:30pm  -   -  13 16 mph 1021.8mb - 39f
10:20pm  -   -  13 16 mph 1022mb - 39f
10:10pm  -   -  13 16 mph 1022.1mb - 39f
10:00pm 1ft 2s 13 18 mph 1022.4mb 40f 39f
9:50pm  -   -  13 16 mph 1022.7mb - 39f
9:40pm  -   -  13 16 mph 1022.8mb - 39f
9:30pm  -   -  13 18 mph 1022.9mb - 39f
9:20pm  -   -  13 18 mph 1023.1mb - 39f
9:10pm  -   -  13 18 mph 1023.1mb - 39f
9:00pm 1.3ft 2s 16 20 mph 1022.9mb 40f 39f
8:50pm  -   -  16 18 mph 1023mb - 39f
8:40pm  -   -  16 18 mph 1023mb - 39f
8:30pm  -   -  16 18 mph 1023mb - 39f
8:20pm  -   -  13 18 mph 1023.1mb - 39f
8:10pm  -   -  13 18 mph 1023.2mb - 39f
8:00pm 1ft 2s 16 18 mph 1023.1mb 40f 39f
7:50pm  -   -  16 18 mph 1023.1mb - 39f
7:40pm  -   -  13 18 mph 1023mb - 39f
7:30pm  -   -  13 18 mph 1023.1mb - 39f
7:20pm  -   -  13 16 mph 1023.2mb - 39f
7:10pm  -   -  13 18 mph 1023.3mb - 39f
7:00pm 1ft 2s 13 16 mph 1023.4mb 40f 39f
6:50pm  -   -  13 16 mph 1023.8mb - 40f
6:40pm  -   -  13 16 mph 1023.8mb - 40f
6:30pm  -   -  13 16 mph 1023.9mb - 40f
6:20pm  -   -  11 13 mph 1024.3mb - 39f
6:10pm  -   -  11 13 mph 1024.5mb - 39f
6:00pm  -   -  11 13 mph 1024.7mb 40f 39f
5:50pm  -   -  11 13 mph 1024.8mb - 39f
5:40pm  -   -  11 13 mph 1024.9mb - 39f
5:30pm  -   -  11 13 mph 1025mb - 39f
5:20pm  -   -  11
mph
1025mb - 39f
5:10pm  -   -  11 13 mph 1025mb - 38f
5:00pm  -   -  11 13 mph 1025mb 40f 39f
4:50pm  -   -  11 13 mph 1024.9mb - 38f
4:40pm  -   -  11 13 mph 1025.1mb - 38f
4:30pm  -   -  11 13 mph 1025.1mb - 38f
4:20pm  -   -  9 13 mph 1025.2mb - 39f
4:10pm  -   -  2 7 mph 1025.3mb - 41f
4:00pm  -   -  4 7 mph 1025.5mb 41f 40f
3:50pm  -   -  7
mph
1025.7mb - 40f
3:40pm  -   -  7
mph
1025.9mb - 39f
3:30pm  -   -  7
mph
1026.1mb - 39f
3:20pm  -   -  7 9 mph 1026.3mb - 39f
3:10pm  -   -  7 9 mph 1026.5mb - 39f
3:00pm  -   -  7 11 mph 1026.6mb 41f 38f
2:50pm  -   -  9 11 mph 1026.8mb - 38f
2:40pm  -   -  9 13 mph 1027.1mb - 38f
2:30pm  -   -  9 11 mph 1027.2mb - 38f
2:20pm  -   -  11 13 mph 1027.3mb - 37f
2:10pm  -   -  7 11 mph 1027.4mb - 37f
2:00pm 0.7ft  -  11 13 mph 1027.5mb 41f 36f
1:50pm  -   -  7 11 mph 1027.6mb - 36f
1:40pm  -   -  7 9 mph 1027.7mb - 36f
1:30pm  -   -  7 11 mph 1027.9mb - 35f
1:20pm  -   -  9 13 mph 1028mb - 35f
1:10pm  -   -  7 9 mph 1028.2mb - 35f
1:00pm 0.7ft  -  4 7 mph 1028.3mb 40f 35f
12:50pm  -   -  7 9 mph 1028.4mb - 34f
12:40pm  -   -  9 11 mph 1028.6mb - 34f
12:30pm  -   -  9 11 mph 1028.7mb - 34f
12:20pm  -   -  9 13 mph 1028.9mb - 34f
12:10pm  -   -  7 11 mph 1029.1mb - 33f
12:00pm  -   -  7 9 mph 1029.2mb 39f 33f
11:50am  -   -  9 13 mph 1029.2mb - 33f
11:40am  -   -  11 13 mph 1029.3mb - 32f
11:30am  -   -  11 13 mph 1029.3mb - 32f
11:20am  -   -  11 16 mph 1029.4mb - 32f
11:10am  -   -  9 13 mph 1029.4mb - 31f
11:00am  -   -  9 11 mph 1029.5mb 39f 31f
10:50am  -   -  7 11 mph 1029.5mb - 31f
10:40am  -   -  9 13 mph 1029.4mb - 31f
10:30am  -   -  11 13 mph 1029.3mb - 30f
10:20am  -   -  9 11 mph 1029.2mb - 30f
10:10am  -   -  9 13 mph 1029.2mb - 30f
10:00am 1.3ft 2s 11 13 mph 1029.1mb 38f 29f
9:50am  -   -  13 18 mph 1029.1mb - 29f
9:40am  -   -  13 18 mph 1029.1mb - 29f
9:30am  -   -  13 18 mph 1028.9mb - 29f
9:20am  -   -  16 18 mph 1028.8mb - 29f
9:10am  -   -  16 20 mph 1028.8mb - 28f
9:00am 1.3ft 2s 16 20 mph 1028.7mb 38f 28f
8:50am  -   -  18 22 mph 1028.6mb - 28f
8:40am  -   -  20 25 mph 1028.5mb - 28f
8:30am  -   -  20 22 mph 1028.5mb - 28f
8:20am  -   -  20 25 mph 1028.5mb - 28f
8:10am  -   -  20 25 mph 1028.4mb - 28f
8:00am 1.6ft 2s 20 25 mph 1028.2mb 38f 28f
7:50am  -   -  20 27 mph 1028.2mb - 28f
7:40am  -   -  20 27 mph 1028mb - 28f
7:30am  -   -  20 27 mph 1027.8mb - 28f
7:20am  -   -  20 25 mph 1027.7mb - 28f
7:10am  -   -  20 25 mph 1027.4mb - 28f
7:00am 1.6ft 2s 20 22 mph 1027.2mb 38f 28f
6:50am  -   -  20 25 mph 1027.1mb - 28f
6:40am  -   -  20 25 mph 1026.9mb - 28f
6:30am  -   -  20 25 mph 1026.7mb - 28f
6:20am  -   -  20 27 mph 1026.5mb - 28f
6:10am  -   -  20 25 mph 1026.3mb - 28f
6:00am 1.6ft 2s 20 25 mph 1026.2mb 39f 28f
5:50am  -   -  20 25 mph 1026.1mb - 28f
5:40am  -   -  20 25 mph 1026mb - 28f
5:30am  -   -  20 25 mph 1025.8mb - 28f
5:20am  -   -  20 25 mph 1025.8mb - 29f
5:10am  -   -  20 27 mph 1025.7mb - 29f
5:00am 2ft 3s 20 29 mph 1025.5mb 39f 29f
4:50am  -   -  20 25 mph 1025.4mb - 29f
4:40am  -   -  20 25 mph 1025.3mb - 29f
4:30am  -   -  20 25 mph 1025.2mb - 29f
4:20am  -   -  18 25 mph 1025.2mb - 29f
4:10am  -   -  18 22 mph 1025.2mb - 29f
4:00am 1.6ft 3s 18 20 mph 1025.1mb 40f 29f
3:50am  -   -  16 20 mph 1025.1mb - 29f
3:40am  -   -  16 22 mph 1025mb - 29f
3:30am  -   -  18 22 mph 1024.9mb - 29f
3:20am  -   -  18 22 mph 1024.9mb - 29f
3:10am  -   -  16 22 mph 1024.9mb - 29f
3:00am 1.3ft 2s 13 18 mph 1024.9mb 40f 29f
2:50am  -   -  16 20 mph 1024.9mb - 29f
2:40am  -   -  16 20 mph 1024.9mb - 29f
2:30am  -   -  16 18 mph 1024.8mb - 29f
2:20am  -   -  16 18 mph 1024.7mb - 30f
2:10am  -   -  16 20 mph 1024.6mb - 30f
2:00am 1.3ft 2s 16 22 mph 1024.4mb 39f 30f
1:50am  -   -  16 20 mph 1024.4mb - 30f
1:40am  -   -  16 18 mph 1024.2mb - 30f
1:30am  -   -  16 20 mph 1024.2mb - 31f
1:20am  -   -  16 20 mph 1024.1mb - 31f
1:10am  -   -  18 20 mph 1024mb - 31f
1:00am 1.3ft 3s 18 25 mph 1023.8mb 39f 31f
12:50am  -   -  20 25 mph 1023.7mb - 31f
12:40am  -   -  20 25 mph 1023.6mb - 31f
12:30am  -   -  18 25 mph 1023.5mb - 31f
12:20am  -   -  20 25 mph 1023.4mb - 31f
12:10am  -   -  18 22 mph 1023.4mb - 31f
12:00am 1.6ft 3s 20 25 mph 1023.4mb 39f 31f
Sat 03/28 11:50pm  -   -  20 25 mph 1023.3mb - 31f
11:40pm  -   -  20 25 mph 1023.2mb - 31f
11:30pm  -   -  20 25 mph 1023.1mb - 31f
11:20pm  -   -  22 29 mph 1023mb - 31f
11:10pm  -   -  20 27 mph 1023mb - 31f
11:00pm 1.6ft 3s 20 25 mph 1022.9mb 40f 31f
10:50pm  -   -  20 25 mph 1022.9mb - 31f
10:40pm  -   -  20 27 mph 1022.8mb - 31f
10:30pm  -   -  20 25 mph 1022.7mb - 31f
10:20pm  -   -  20 27 mph 1022.6mb - 32f
10:10pm  -   -  20 25 mph 1022.5mb - 32f
10:00pm 1.6ft 2s 20 27 mph 1022.4mb 40f 32f
9:50pm  -   -  20 25 mph 1022.4mb - 32f
9:40pm  -   -  20 27 mph 1022.3mb - 32f
9:30pm  -   -  22 27 mph 1022.2mb - 32f
9:20pm  -   -  20 27 mph 1022mb - 32f
9:10pm  -   -  22 27 mph 1021.9mb - 32f
9:00pm 2ft 3s 25 29 mph 1021.6mb 40f 32f
8:50pm  -   -  25 29 mph 1021.4mb - 32f
8:40pm  -   -  22 29 mph 1021.2mb - 32f
8:30pm  -   -  25 29 mph 1021mb - 33f
8:20pm  -   -  27 31 mph 1020.8mb - 33f
8:10pm  -   -  25 34 mph 1020.6mb - 33f
8:00pm 2ft 3s 25 31 mph 1020.4mb 40f 33f
7:50pm  -   -  25 29 mph 1020.1mb - 33f
7:40pm  -   -  25 29 mph 1019.9mb - 33f
7:30pm  -   -  27 31 mph 1019.6mb - 33f
7:20pm  -   -  27 31 mph 1019.4mb - 34f
7:10pm  -   -  25 31 mph 1019.2mb - 34f
7:00pm 1.6ft 2s 22 31 mph 1019mb 40f 34f
6:50pm  -   -  20 27 mph 1019mb - 34f
6:40pm  -   -  20 25 mph 1018.8mb - 34f
6:30pm  -   -  22 29 mph 1018.5mb - 34f
6:20pm  -   -  22 29 mph 1018.4mb - 34f
6:10pm  -   -  22 29 mph 1018.2mb - 33f
6:00pm 2ft 3s 18 29 mph 1018mb 41f 33f
5:50pm  -   -  18 25 mph 1018mb - 33f
5:40pm  -   -  25 31 mph 1017.7mb - 33f
5:30pm  -   -  18 20 mph 1017.5mb - 34f
5:20pm  -   -  18 22 mph 1017.4mb - 33f
5:10pm  -   -  18 25 mph 1017.3mb - 33f
5:00pm 2ft 3s 22 31 mph 1017.2mb 41f 32f
4:50pm  -   -  25 31 mph 1017mb - 33f
4:40pm  -   -  18 22 mph 1016.9mb - 33f
4:30pm  -   -  20 25 mph 1016.8mb - 33f
4:20pm  -   -  22 29 mph 1016.6mb - 33f
4:10pm  -   -  25 29 mph 1016.4mb - 33f
4:00pm 2ft 3s 22 29 mph 1016.3mb 41f 33f
3:50pm  -   -  18 25 mph 1016.4mb - 33f
3:40pm  -   -  25 31 mph 1016.2mb - 33f
3:30pm  -   -  18 25 mph 1016.2mb - 33f
3:20pm  -   -  22 29 mph 1016mb - 33f
3:10pm  -   -  22 27 mph 1015.9mb - 33f
3:00pm 2ft 3s 20 27 mph 1015.9mb 41f 33f
2:50pm  -   -  20 27 mph 1015.9mb - 33f
2:40pm  -   -  20 25 mph 1015.8mb - 33f
2:30pm  -   -  22 29 mph 1015.7mb - 33f
2:20pm  -   -  20 27 mph 1015.6mb - 33f
2:10pm  -   -  22 27 mph 1015.6mb - 33f
2:00pm 1.6ft 3s 20 27 mph 1015.6mb 41f 33f
1:50pm  -   -  18 25 mph 1015.6mb - 33f
1:40pm  -   -  18 22 mph 1015.5mb - 33f
1:30pm  -   -  20 25 mph 1015.4mb - 32f
1:20pm  -   -  18 25 mph 1015.5mb - 32f
1:10pm  -   -  20 27 mph 1015.5mb - 32f
1:00pm 2ft 3s 22 29 mph 1015.5mb 41f 31f
12:50pm  -   -  20 27 mph 1015.4mb - 31f
12:40pm  -   -  20 27 mph 1015.4mb - 31f
12:30pm  -   -  20 27 mph 1015.3mb - 31f
12:20pm  -   -  22 29 mph 1015.3mb - 31f
12:10pm  -   -  22 29 mph 1015.3mb - 31f
12:00pm 1.6ft 3s 22 29 mph 1015.4mb 40f 31f
11:50am  -   -  22 29 mph 1015.5mb - 31f
11:40am  -   -  22 29 mph 1015.5mb - 30f
11:30am  -   -  25 29 mph 1015.5mb - 30f
11:20am  -   -  22 31 mph 1015.5mb - 30f
11:10am  -   -  22 29 mph 1015.5mb - 31f
11:00am 2ft 3s 22 29 mph 1015.5mb 41f 31f
10:50am  -   -  22 29 mph 1015.6mb - 31f
10:40am  -   -  22 29 mph 1015.5mb - 31f
10:30am  -   -  22 27 mph 1015.4mb - 31f
10:20am  -   -  22 29 mph 1015.3mb - 31f
10:10am  -   -  22 27 mph 1015.1mb - 31f
10:00am 2ft 3s 22 27 mph 1015mb 41f 31f
9:50am  -   -  20 25 mph 1014.8mb - 31f
9:40am  -   -  20 27 mph 1014.6mb - 31f
9:30am  -   -  22 29 mph 1014.5mb - 31f
9:20am  -   -  22 27 mph 1014.4mb - 32f
9:10am  -   -  22 27 mph 1014.3mb - 32f
9:00am 2.5ft 3s 22 29 mph 1014.2mb 41f 32f
8:50am  -   -  25 29 mph 1014mb - 32f
8:40am  -   -  27 31 mph 1013.9mb - 33f
8:30am  -   -  25 29 mph 1013.8mb - 33f
8:20am  -   -  25 29 mph 1013.7mb - 33f
8:10am  -   -  27 31 mph 1013.5mb - 33f
8:00am 2ft 3s 25 31 mph 1013.3mb 41f 33f
7:50am  -   -  25 29 mph 1013.1mb - 34f
7:40am  -   -  25 31 mph 1012.9mb - 34f
7:30am  -   -  25 29 mph 1012.7mb - 34f
7:20am  -   -  22 29 mph 1012.5mb - 34f
7:10am  -   -  22 27 mph 1012.3mb - 35f
7:00am 1.6ft 2s 22 27 mph 1012.1mb 41f 35f
6:50am  -   -  22 27 mph 1012mb - 35f
6:40am  -   -  20 27 mph 1012mb - 35f
6:30am  -   -  22 27 mph 1011.9mb - 35f
6:20am  -   -  22 27 mph 1011.8mb - 35f
6:10am  -   -  22 25 mph 1011.7mb - 35f
6:00am 1.6ft 2s 20 25 mph 1011.6mb 41f 35f
5:50am  -   -  20 25 mph 1011.4mb - 35f
5:40am  -   -  20 27 mph 1011.3mb - 36f
5:30am  -   -  20 25 mph 1011.2mb - 36f
5:20am  -   -  20 25 mph 1011.1mb - 36f
5:10am  -   -  20 25 mph 1010.9mb - 36f
5:00am 1.6ft 3s 20 25 mph 1010.7mb 41f 36f
4:50am  -   -  20 25 mph 1010.6mb - 36f
4:40am  -   -  18 22 mph 1010.6mb - 37f
4:30am  -   -  18 22 mph 1010.7mb - 37f
4:20am  -   -  18 22 mph 1010.8mb - 37f
4:10am  -   -  16 20 mph 1010.9mb - 37f
4:00am 2ft 3s 18 20 mph 1010.9mb 41f 37f
3:50am  -   -  18 22 mph 1010.8mb - 37f
3:40am  -   -  22 27 mph 1010.7mb - 38f
3:30am  -   -  22 29 mph 1010.7mb - 38f
3:20am  -   -  18 22 mph 1010.9mb - 38f
3:10am  -   -  16 20 mph 1010.7mb - 38f
3:00am 2ft 3s 18 22 mph 1010.5mb 42f 39f
2:50am  -   -  18 22 mph 1010.4mb - 39f
2:40am  -   -  18 22 mph 1010.4mb - 39f
2:30am  -   -  18 22 mph 1010.4mb - 39f
2:20am  -   -  18 22 mph 1010.3mb - 40f
2:10am  -   -  20 25 mph 1010.1mb - 40f
2:00am 2ft 3s 20 27 mph 1010.2mb 42f 40f
1:50am  -   -  18 22 mph 1010.4mb - 40f
1:40am  -   -  20 25 mph 1010.3mb - 40f
1:30am  -   -  20 25 mph 1010.2mb - 41f
1:20am  -   -  20 25 mph 1010.3mb - 41f